Bookmark and Share
Track history (hours):
 

Euro Snow

Last reported at 2014-Apr-19 08:34 UTC. Time now 2014-Apr-19 09:28 UTC.
Position N 51°35' E 001°47'.

Length 133 m; draft 7.5 m.

Type: Cargo ship. MMSI: 235613000.

NotesDate/timePositionNaut miles runAvg speedWind from/ knotsBaromVisibWave heightAir tempDewpointWater temp
2014-Apr-19 08:34N 51°35' E 001°47'1515.3
2014-Apr-19 07:33N 51°20' E 001°43'1414.2
2014-Apr-19 06:34N 51°06' E 001°39'3815.3
2014-Apr-19 04:05N 50°35' E 001°04'815.2
2014-Apr-19 03:33N 50°31' E 000°54'1615.4
2014-Apr-19 02:33N 50°26' E 000°30'5016.6
2014-Apr-18 23:30N 50°13' W 000°46'1918.9
2014-Apr-18 22:32N 50°06' W 001°13'75114.9
2014-Apr-16 20:05N 39°09' W 009°42'3313.1
2014-Apr-16 17:33N 38°38' W 009°27'1514.6
2014-Apr-16 16:33N 38°42' W 009°09'3 2.5
2014-Apr-16 15:32N 38°43' W 009°07'0 0.0
2014-Apr-16 14:32N 38°43' W 009°07'0 0.0
2014-Apr-16 13:32N 38°43' W 009°07'0 0.0
2014-Apr-16 12:31N 38°43' W 009°07'0 0.0
2014-Apr-16 11:31N 38°43' W 009°07'0 0.0
2014-Apr-16 10:31N 38°43' W 009°07'0 0.0
2014-Apr-16 09:31N 38°43' W 009°07'0 0.0
2014-Apr-16 08:31N 38°43' W 009°07'0 0.0
2014-Apr-16 07:31N 38°43' W 009°07'0 0.0
2014-Apr-16 06:31N 38°43' W 009°07'6 6.4
2014-Apr-16 05:33N 38°41' W 009°14'70 9.3
2014-Apr-15 22:03N 39°49' W 009°31'  
2014-Apr-13 12:25N 43°43' W 006°08'1315.2
2014-Apr-13 11:33N 43°41' W 005°50'10 9.4
2014-Apr-13 10:32N 43°33' W 005°41'0 0.0
2014-Apr-13 07:22N 43°33' W 005°41'0 0.0
2014-Apr-13 05:27N 43°33' W 005°41'8 8.4
2014-Apr-13 04:34N 43°41' W 005°41'2015.5
2014-Apr-13 03:17N 44°01' W 005°42'45113.0
2014-Apr-11 16:33N 50°29' W 000°04'1817.1
2014-Apr-11 15:28N 50°34' E 000°24'1617.9
2014-Apr-11 14:33N 50°42' E 000°47'1818.4
2014-Apr-11 13:33N 50°52' E 001°11'1817.6
2014-Apr-11 12:33N 51°04' E 001°32'1616.1
2014-Apr-11 11:33N 51°16' E 001°49'1615.8
2014-Apr-11 10:33N 51°29' E 002°03'1616.2
2014-Apr-11 09:33N 51°41' E 002°21'1916.8
2014-Apr-11 08:27N 51°54' E 002°42'2216.3
2014-Apr-11 07:07N 52°02' E 003°15'1317.5
2014-Apr-11 06:23N 52°03' E 003°36'1416.9
2014-Apr-11 05:33N 52°01' E 003°58'4 3.6
2014-Apr-11 04:31N 51°58' E 004°03'0 0.0
2014-Apr-11 02:21N 51°58' E 004°03'0 0.0
2014-Apr-11 01:23N 51°58' E 004°03'0 0.0
2014-Apr-10 23:23N 51°58' E 004°03'0 0.0
2014-Apr-10 22:26N 51°58' E 004°03'0 0.0
2014-Apr-10 21:26N 51°58' E 004°03'0 0.0
2014-Apr-10 20:26N 51°58' E 004°03'0 0.0
2014-Apr-10 19:29N 51°58' E 004°03'0 0.0
2014-Apr-10 18:20N 51°58' E 004°03'0 0.0
2014-Apr-10 17:19N 51°58' E 004°03'6 7.4
2014-Apr-10 16:33N 52°01' E 003°54'1615.6
2014-Apr-10 15:33N 52°16' E 003°47'1615.9
2014-Apr-10 14:34N 52°31' E 003°51'1515.1
2014-Apr-10 13:34N 52°46' E 003°56'1413.9
2014-Apr-10 12:33N 52°59' E 004°04'1413.6
2014-Apr-10 11:33N 53°08' E 004°21'1413.9
2014-Apr-10 10:33N 53°20' E 004°31'1616.0
2014-Apr-10 09:34N 53°36' E 004°39'1817.3
2014-Apr-10 08:32N 53°52' E 004°49'13316.7
2014-Apr-10 00:33N 55°47' E 006°46'16216.2
2014-Apr-09 14:33N 57°44' E 010°11'1615.8
2014-Apr-09 13:33N 57°48' E 010°40'1615.7
2014-Apr-09 12:33N 57°43' E 011°08'1615.9
2014-Apr-09 11:33N 57°37' E 011°35'10 9.6
2014-Apr-09 10:33N 57°41' E 011°51'0 0.0
2014-Apr-09 09:31N 57°41' E 011°51'  

Dump ship's entire track history

sailing weather and tide predictions

Euro Snow — VQGH9 — position and weather